createdAt,value
2023-03-22T00:01:24.082Z,20.85
2023-03-22T00:03:52.804Z,16.88
2023-03-22T00:06:20.381Z,17.70
2023-03-22T00:08:53.916Z,21.60
2023-03-22T00:11:24.578Z,23.40
2023-03-22T00:13:52.895Z,21.60
2023-03-22T00:16:21.585Z,18.30
2023-03-22T00:18:49.429Z,17.52
2023-03-22T00:21:17.862Z,19.13
2023-03-22T00:23:46.141Z,22.50
2023-03-22T00:26:14.915Z,18.55
2023-03-22T00:28:42.964Z,24.20
2023-03-22T00:31:11.261Z,16.05
2023-03-22T00:33:38.822Z,17.92
2023-03-22T00:36:08.855Z,14.52
2023-03-22T00:38:44.110Z,13.02
2023-03-22T00:41:17.824Z,18.48
2023-03-22T00:43:46.483Z,15.50
2023-03-22T00:46:15.431Z,17.48
2023-03-22T00:48:42.951Z,17.42
2023-03-22T00:51:11.125Z,18.05
2023-03-22T00:53:42.536Z,14.40
2023-03-22T00:56:14.459Z,24.42
2023-03-22T00:58:42.984Z,22.60
2023-03-22T01:01:14.342Z,18.20
2023-03-22T01:03:43.820Z,20.38
2023-03-22T01:06:11.930Z,21.13
2023-03-22T01:08:39.573Z,22.17
2023-03-22T01:11:07.766Z,20.05
2023-03-22T01:13:38.237Z,21.15
2023-03-22T01:16:10.005Z,19.20
2023-03-22T01:18:37.926Z,20.30
2023-03-22T01:21:05.521Z,21.27
2023-03-22T01:23:32.787Z,18.65
2023-03-22T01:26:00.368Z,26.35
2023-03-22T01:28:28.711Z,24.50
2023-03-22T01:30:56.408Z,20.83
2023-03-22T01:33:23.936Z,17.20
2023-03-22T01:35:51.354Z,20.42
2023-03-22T01:38:19.122Z,19.27
2023-03-22T01:40:46.451Z,25.05
2023-03-22T01:43:16.336Z,23.85
2023-03-22T01:45:48.662Z,19.92
2023-03-22T01:48:46.439Z,18.67
2023-03-22T01:51:20.802Z,21.60
2023-03-22T01:53:54.983Z,30.75
2023-03-22T01:56:24.689Z,22.10
2023-03-22T01:58:55.453Z,22.15
2023-03-22T02:01:24.198Z,22.85
2023-03-22T02:04:20.312Z,23.08
2023-03-22T02:09:22.214Z,17.33
2023-03-22T02:12:12.671Z,19.17
2023-03-22T02:14:57.207Z,23.20
2023-03-22T02:17:36.588Z,19.38
2023-03-22T02:20:19.311Z,25.70
2023-03-22T02:23:02.790Z,20.40
2023-03-22T02:25:29.944Z,21.65
2023-03-22T02:28:09.149Z,21.00
2023-03-22T02:30:36.545Z,21.92
2023-03-22T02:33:17.075Z,22.30
2023-03-22T02:35:56.447Z,19.13
2023-03-22T02:38:48.887Z,24.08
2023-03-22T02:41:36.401Z,21.40
2023-03-22T02:44:12.978Z,19.55
2023-03-22T02:47:05.526Z,23.42
2023-03-22T02:49:46.305Z,24.10
2023-03-22T02:52:25.256Z,18.38
2023-03-22T02:55:05.021Z,19.17
2023-03-22T02:58:16.987Z,18.00
2023-03-22T03:00:47.470Z,16.10
2023-03-22T03:03:18.747Z,19.45
2023-03-22T03:05:54.870Z,27.23
2023-03-22T03:08:24.167Z,19.40
2023-03-22T03:10:53.121Z,24.92
2023-03-22T03:13:21.359Z,23.83
2023-03-22T03:16:00.061Z,20.48
2023-03-22T03:18:44.922Z,18.10
2023-03-22T03:21:42.867Z,16.43
2023-03-22T03:24:31.328Z,16.02
2023-03-22T03:27:07.536Z,19.85
2023-03-22T03:29:49.286Z,16.85
2023-03-22T03:32:31.805Z,18.45
2023-03-22T03:35:08.886Z,18.70
2023-03-22T03:37:41.801Z,20.42
2023-03-22T03:40:13.290Z,25.25
2023-03-22T03:42:53.488Z,19.25
2023-03-22T03:45:22.602Z,20.63
2023-03-22T03:47:57.340Z,17.95
2023-03-22T03:50:26.703Z,19.40
2023-03-22T03:52:55.959Z,23.70
2023-03-22T03:55:24.364Z,18.15
2023-03-22T03:57:51.772Z,20.90
2023-03-22T04:00:20.251Z,20.75
2023-03-22T04:02:47.948Z,19.42
2023-03-22T04:05:15.210Z,16.23
2023-03-22T04:07:42.935Z,18.55
2023-03-22T04:10:10.810Z,22.70
2023-03-22T04:12:38.258Z,19.13
2023-03-22T04:15:06.329Z,21.90
2023-03-22T04:17:33.694Z,16.45
2023-03-22T04:20:05.896Z,20.17
2023-03-22T04:22:38.836Z,21.88
2023-03-22T04:25:12.109Z,18.85
2023-03-22T04:27:40.764Z,20.92
2023-03-22T04:30:11.711Z,17.95
2023-03-22T04:32:39.402Z,18.10
2023-03-22T04:35:07.359Z,15.68
2023-03-22T04:37:35.062Z,20.58
2023-03-22T04:40:02.555Z,19.98
2023-03-22T04:42:29.959Z,24.20
2023-03-22T04:44:57.289Z,24.40
2023-03-22T04:47:24.525Z,18.02
2023-03-22T04:49:51.874Z,20.75
2023-03-22T04:52:19.104Z,18.85
2023-03-22T04:54:46.409Z,29.73
2023-03-22T04:57:13.824Z,16.73
2023-03-22T04:59:41.233Z,18.25
2023-03-22T05:02:08.712Z,18.90
2023-03-22T05:04:37.548Z,25.60
2023-03-22T05:07:05.041Z,20.90
2023-03-22T05:09:33.635Z,14.07
2023-03-22T05:12:01.112Z,19.65
2023-03-22T05:14:28.508Z,17.50
2023-03-22T05:16:56.639Z,14.50
2023-03-22T05:19:24.788Z,27.73
2023-03-22T05:21:58.514Z,17.38
2023-03-22T05:24:26.599Z,18.17
2023-03-22T05:26:56.587Z,15.18
2023-03-22T05:29:24.652Z,18.17
2023-03-22T05:31:51.930Z,19.73
2023-03-22T05:34:20.673Z,22.73
2023-03-22T05:36:48.535Z,23.48
2023-03-22T05:39:16.553Z,15.60
2023-03-22T05:41:44.113Z,18.60
2023-03-22T05:44:11.478Z,17.90
2023-03-22T05:46:38.874Z,22.27
2023-03-22T05:49:06.245Z,23.55
2023-03-22T05:51:34.400Z,16.55
2023-03-22T05:54:01.875Z,22.38
2023-03-22T05:56:29.278Z,19.85
2023-03-22T05:58:58.674Z,20.80
2023-03-22T06:01:25.934Z,25.27
2023-03-22T06:03:53.700Z,17.05
2023-03-22T06:06:21.550Z,18.42
2023-03-22T06:08:49.162Z,25.20
2023-03-22T06:11:16.829Z,24.75
2023-03-22T06:13:44.211Z,26.27
2023-03-22T06:16:11.969Z,18.67
2023-03-22T06:18:40.323Z,21.83
2023-03-22T06:21:08.162Z,21.83
2023-03-22T06:23:35.534Z,12.63
2023-03-22T06:26:02.721Z,18.40
2023-03-22T06:28:30.209Z,16.80
2023-03-22T06:30:57.804Z,17.67
2023-03-22T06:33:25.251Z,17.95
2023-03-22T06:35:52.503Z,15.60
2023-03-22T06:38:19.883Z,14.10
2023-03-22T06:40:47.291Z,20.45
2023-03-22T06:43:14.564Z,18.50
2023-03-22T06:45:41.914Z,16.08
2023-03-22T06:48:09.336Z,16.95
2023-03-22T06:50:40.370Z,12.80
2023-03-22T06:53:09.539Z,15.30
2023-03-22T06:55:36.763Z,20.90
2023-03-22T06:58:04.796Z,14.15
2023-03-22T07:00:34.514Z,20.42
2023-03-22T07:03:04.820Z,17.83
2023-03-22T07:05:32.201Z,13.68
2023-03-22T07:07:59.597Z,19.88
2023-03-22T07:10:26.842Z,19.88
2023-03-22T07:12:54.064Z,18.02
2023-03-22T07:15:24.847Z,17.85
2023-03-22T07:17:53.054Z,16.45
2023-03-22T07:20:20.767Z,17.70
2023-03-22T07:22:49.782Z,21.00
2023-03-22T07:25:17.155Z,11.65
2023-03-22T07:27:44.979Z,20.65
2023-03-22T07:30:12.903Z,14.10
2023-03-22T07:32:41.875Z,19.98
2023-03-22T07:35:09.435Z,13.60
2023-03-22T07:37:36.848Z,17.20
2023-03-22T07:40:05.431Z,15.55
2023-03-22T07:42:33.003Z,16.33
2023-03-22T07:45:00.724Z,19.80
2023-03-22T07:47:40.261Z,21.02
2023-03-22T07:50:09.988Z,22.67
2023-03-22T07:52:37.432Z,16.98
2023-03-22T07:55:05.631Z,18.13
2023-03-22T07:57:33.084Z,19.23
2023-03-22T08:00:01.118Z,16.08
2023-03-22T08:02:29.261Z,13.43
2023-03-22T08:04:56.889Z,16.67
2023-03-22T08:07:27.464Z,18.55
2023-03-22T08:09:54.960Z,16.27
2023-03-22T08:12:22.594Z,15.88
2023-03-22T08:14:51.417Z,21.48
2023-03-22T08:17:20.361Z,16.10
2023-03-22T08:19:47.596Z,15.20
2023-03-22T08:22:18.292Z,17.40
2023-03-22T08:24:45.906Z,21.65
2023-03-22T08:27:14.556Z,15.60
2023-03-22T08:29:42.108Z,16.17
2023-03-22T08:32:09.708Z,20.40
2023-03-22T08:34:41.747Z,20.13
2023-03-22T08:37:10.873Z,15.63
2023-03-22T08:39:38.860Z,15.98
2023-03-22T08:42:06.311Z,18.02
2023-03-22T08:44:33.727Z,20.35
2023-03-22T08:47:02.242Z,14.88
2023-03-22T08:49:31.842Z,16.90
2023-03-22T08:51:59.303Z,19.15
2023-03-22T08:54:28.490Z,19.52
2023-03-22T08:56:55.906Z,20.73
2023-03-22T08:59:23.070Z,18.10
2023-03-22T09:01:50.531Z,16.75
2023-03-22T09:04:18.052Z,24.05
2023-03-22T09:06:47.216Z,16.10
2023-03-22T09:09:15.125Z,18.08
2023-03-22T09:11:43.090Z,21.23
2023-03-22T09:14:10.997Z,25.85
2023-03-22T09:16:38.510Z,16.05
2023-03-22T09:19:07.032Z,17.15
2023-03-22T09:21:34.365Z,21.42
2023-03-22T09:24:01.598Z,19.77
2023-03-22T09:26:28.795Z,15.75
2023-03-22T09:28:56.171Z,22.27
2023-03-22T09:31:24.175Z,17.88
2023-03-22T09:33:52.080Z,27.05
2023-03-22T09:36:20.038Z,14.18
2023-03-22T09:38:50.212Z,16.63
2023-03-22T09:41:25.131Z,16.77
2023-03-22T09:43:57.728Z,17.52
2023-03-22T09:46:37.610Z,24.38
2023-03-22T09:49:27.283Z,18.23
2023-03-22T09:51:55.429Z,15.68
2023-03-22T09:54:36.044Z,17.05
2023-03-22T09:57:12.930Z,18.95
2023-03-22T10:00:14.947Z,16.77
2023-03-22T10:03:13.121Z,18.70
2023-03-22T10:06:20.624Z,14.38
2023-03-22T10:08:54.005Z,14.95
2023-03-22T10:11:36.214Z,13.90
2023-03-22T10:14:24.345Z,12.57
2023-03-22T10:16:56.503Z,12.15
2023-03-22T10:19:51.650Z,14.27
2023-03-22T10:22:25.341Z,14.32
2023-03-22T10:24:54.219Z,10.45
2023-03-22T10:27:22.963Z,21.35
2023-03-22T10:29:59.215Z,10.70
2023-03-22T10:32:51.256Z,13.20
2023-03-22T10:35:28.131Z,9.52
2023-03-22T10:37:57.956Z,7.60
2023-03-22T10:40:36.771Z,16.75
2023-03-22T10:43:26.202Z,7.00
2023-03-22T10:45:56.231Z,11.80
2023-03-22T10:48:33.152Z,9.57
2023-03-22T10:51:02.185Z,10.65
2023-03-22T10:53:38.964Z,8.40
2023-03-22T10:56:12.367Z,6.35
2023-03-22T10:58:39.731Z,13.43
2023-03-22T11:01:12.632Z,7.85
2023-03-22T11:03:43.294Z,9.88
2023-03-22T11:06:30.554Z,5.38
2023-03-22T11:09:13.128Z,7.70
2023-03-22T11:12:12.727Z,6.35
2023-03-22T11:14:45.021Z,9.68
2023-03-22T11:17:15.282Z,12.40
2023-03-22T11:19:54.125Z,7.30
2023-03-22T11:22:42.734Z,8.18
2023-03-22T11:25:19.000Z,6.60
2023-03-22T11:28:17.008Z,4.75
2023-03-22T11:30:59.851Z,7.38
2023-03-22T11:33:27.554Z,6.20
2023-03-22T11:36:00.166Z,7.05
2023-03-22T11:38:37.185Z,4.35
2023-03-22T11:41:22.562Z,8.70
2023-03-22T11:43:54.884Z,4.68
2023-03-22T11:46:23.687Z,7.93
2023-03-22T11:48:58.303Z,9.18
2023-03-22T11:51:33.778Z,8.88
2023-03-22T11:54:31.001Z,7.90
2023-03-22T11:57:06.250Z,13.85
2023-03-22T12:00:10.789Z,5.22
2023-03-22T12:03:04.531Z,4.05
2023-03-22T12:05:40.030Z,4.90
2023-03-22T12:08:17.580Z,2.58
2023-03-22T12:10:52.840Z,7.93
2023-03-22T12:13:22.246Z,8.90
2023-03-22T12:15:58.537Z,11.75
2023-03-22T12:18:31.808Z,3.00
2023-03-22T12:21:00.795Z,6.03
2023-03-22T12:23:31.377Z,2.60
2023-03-22T12:26:28.150Z,27.90
2023-03-22T12:29:22.172Z,3.60
2023-03-22T12:32:05.974Z,3.50
2023-03-22T12:34:47.688Z,3.17
2023-03-22T12:37:21.168Z,10.93
2023-03-22T12:40:15.411Z,4.97
2023-03-22T12:43:21.729Z,9.65
2023-03-22T12:45:53.519Z,3.72
2023-03-22T12:48:41.587Z,4.10
2023-03-22T12:51:12.951Z,3.55
2023-03-22T12:53:49.543Z,10.75
2023-03-22T12:56:20.887Z,5.90
2023-03-22T12:58:52.131Z,4.40
2023-03-22T13:01:31.026Z,2.53
2023-03-22T13:03:59.818Z,2.53
2023-03-22T13:06:58.995Z,4.07
2023-03-22T13:09:37.473Z,5.07
2023-03-22T13:12:17.104Z,5.47
2023-03-22T13:14:53.239Z,7.00
2023-03-22T13:17:23.653Z,3.63
2023-03-22T13:20:00.638Z,6.68
2023-03-22T13:22:51.371Z,2.60
2023-03-22T13:25:21.244Z,6.15
2023-03-22T13:27:59.377Z,4.80
2023-03-22T13:30:50.918Z,5.40
2023-03-22T13:33:21.360Z,5.68
2023-03-22T13:35:55.426Z,7.28
2023-03-22T13:38:29.769Z,3.15
2023-03-22T13:41:07.515Z,3.33
2023-03-22T13:43:47.789Z,4.47
2023-03-22T13:46:18.323Z,2.67
2023-03-22T13:48:49.607Z,6.97
2023-03-22T13:51:23.316Z,5.53
2023-03-22T13:54:09.214Z,2.90
2023-03-22T13:56:42.612Z,6.43
2023-03-22T13:59:19.475Z,3.15
2023-03-22T14:01:53.591Z,5.43
2023-03-22T14:04:35.249Z,4.38
2023-03-22T14:07:27.378Z,8.50
2023-03-22T14:10:21.047Z,3.85
2023-03-22T14:13:14.740Z,5.20
2023-03-22T14:15:50.180Z,5.45
2023-03-22T14:21:06.518Z,3.65
